Aviation Digital Data Service (ADDS)

Output produced by METARs form (1326 UTC 21 August 2019)
found at http://www.aviationweather.gov/metar/data/
 
Forecast for: PHLI (LIHUE/KAUAI IS , HI, US)
Text: PHLI 211120Z 2112/2212 05013KT P6SM VCSH SCT022 BKN040
Forecast period: 1200 to 2000 UTC 21 August 2019
Forecast type: FROM: standard forecast or significant change
Winds: from the NE (50 degrees) at 15 MPH (13 knots; 6.7 m/s)
Visibility: 6 or more miles 10+ km)
Ceiling: 4000 feet AGL
Clouds: scattered clouds at 2200 feet AGL
broken clouds at 4000 feet AGL
Weather: VCSH  (showers in vicinity)
Text: FM212000 05014G20KT P6SM FEW023 SCT045
Forecast period: 2000 UTC 21 August 2019 to 0500 UTC 22 August 2019
Forecast type: FROM: standard forecast or significant change
Winds: from the NE (50 degrees) at 16 MPH (14 knots; 7.2 m/s)
gusting to 23 MPH (20 knots; 10.3 m/s)
Visibility: 6 or more miles 10+ km)
Ceiling: at least 12,000 feet AGL
Clouds: few clouds at 2300 feet AGL
scattered clouds at 4500 feet AGL
Weather: no significant weather forecast for this period
Text: FM220500 04014KT P6SM VCSH SCT022 BKN045
Forecast period: 0500 to 1200 UTC 22 August 2019
Forecast type: FROM: standard forecast or significant change
Winds: from the NE (40 degrees) at 16 MPH (14 knots; 7.2 m/s)
Visibility: 6 or more miles 10+ km)
Ceiling: 4500 feet AGL
Clouds: scattered clouds at 2200 feet AGL
broken clouds at 4500 feet AGL
Weather: VCSH  (showers in vicinity)